Time,TemperatureF,DewpointF,PressureIn,WindDirection,WindDirectionDegrees,WindSpeedMPH,WindSpeedGustMPH,Humidity,HourlyPrecipIn,Conditions,Clouds,dailyrainin,SoftwareType,DateUTC
2013-02-28 00:00:00,30.7,28.1,29.58,SSW,202,15.0,28.0,90,0.00,,SKC,0.00,VWS V14.01,2013-02-28 05:00:00,
2013-02-28 00:15:00,30.6,28.3,29.57,SSW,202,13.0,28.0,91,0.00,,SKC,0.00,VWS V14.01,2013-02-28 05:15:00,
2013-02-28 00:30:00,30.3,28.3,29.57,SSW,202,10.0,33.0,92,0.00,,SKC,0.00,VWS V14.01,2013-02-28 05:30:00,
2013-02-28 00:45:00,30.0,28.2,29.57,SW,225,6.0,23.0,93,0.00,,SKC,0.00,VWS V14.01,2013-02-28 05:45:00,
2013-02-28 01:00:00,29.7,27.9,29.57,SSW,202,8.0,25.0,93,0.00,,SKC,0.00,VWS V14.01,2013-02-28 06:00:00,
2013-02-28 01:15:00,29.0,27.2,29.56,SSW,202,9.0,27.0,93,0.00,,SKC,0.00,VWS V14.01,2013-02-28 06:15:00,
2013-02-28 01:30:00,28.7,26.7,29.57,SSW,202,8.0,29.0,92,0.00,,SKC,0.00,VWS V14.01,2013-02-28 06:30:00,
2013-02-28 01:45:00,28.4,26.1,29.57,SSW,202,11.0,37.0,91,0.00,,SKC,0.00,VWS V14.01,2013-02-28 06:45:00,
2013-02-28 02:00:00,28.2,25.4,29.56,SSW,202,8.0,27.0,89,0.00,,SKC,0.00,VWS V14.01,2013-02-28 07:00:00,
2013-02-28 02:15:00,28.1,25.5,29.56,SSW,202,7.0,21.0,90,0.00,,SKC,0.00,VWS V14.01,2013-02-28 07:15:00,
2013-02-28 02:30:00,27.9,25.4,29.57,SW,225,5.0,20.0,90,0.00,,SKC,0.00,VWS V14.01,2013-02-28 07:30:00,
2013-02-28 02:45:00,27.8,24.7,29.56,SSW,202,7.0,21.0,88,0.00,,SKC,0.00,VWS V14.01,2013-02-28 07:45:00,
2013-02-28 03:00:00,27.6,24.2,29.57,SW,225,6.0,23.0,87,0.00,,SKC,0.00,VWS V14.01,2013-02-28 08:00:00,
2013-02-28 03:15:00,27.3,22.5,29.57,SSW,202,6.0,19.0,82,0.00,,SKC,0.00,VWS V14.01,2013-02-28 08:15:00,
2013-02-28 03:45:00,27.2,21.6,29.57,NW,315,3.0,14.0,79,0.00,,SKC,0.00,VWS V14.01,2013-02-28 08:45:00,
2013-02-28 04:00:00,27.0,21.1,29.57,WNW,292,1.0,13.0,78,0.00,,SKC,0.00,VWS V14.01,2013-02-28 09:00:00,
2013-02-28 04:15:00,26.9,20.7,29.57,SSW,202,3.0,14.0,77,0.00,,SKC,0.00,VWS V14.01,2013-02-28 09:15:00,
2013-02-28 04:30:00,26.9,21.0,29.57,SW,225,3.0,16.0,78,0.00,,SKC,0.00,VWS V14.01,2013-02-28 09:30:00,
2013-02-28 04:45:00,26.7,21.1,29.57,SSW,202,3.0,21.0,79,0.00,,SKC,0.00,VWS V14.01,2013-02-28 09:45:00,
2013-02-28 05:00:00,26.6,21.6,29.58,SSE,158,3.0,15.0,81,0.00,,SKC,0.00,VWS V14.01,2013-02-28 10:00:00,
2013-02-28 05:15:00,26.3,21.9,29.59,South,180,3.0,13.0,83,0.00,,SKC,0.00,VWS V14.01,2013-02-28 10:15:00,
2013-02-28 05:30:00,26.1,21.9,29.59,South,180,2.0,11.0,84,0.00,,SKC,0.00,VWS V14.01,2013-02-28 10:30:00,
2013-02-28 05:45:00,26.1,21.9,29.58,South,180,1.0,9.0,84,0.00,,SKC,0.00,VWS V14.01,2013-02-28 10:45:00,
2013-02-28 06:00:00,26.1,21.9,29.59,SSW,202,2.0,19.0,84,0.00,,SKC,0.00,VWS V14.01,2013-02-28 11:00:00,
2013-02-28 06:15:00,26.0,22.4,29.60,SSW,202,2.0,10.0,86,0.00,,SKC,0.00,VWS V14.01,2013-02-28 11:15:00,
2013-02-28 06:38:00,25.8,22.5,29.60,WNW,285,0.0,2.0,87,0.00,,SKC,0.00,VWS V14.01,2013-02-28 11:38:00,
2013-02-28 06:44:00,25.8,22.5,29.60,SW,221,0.0,10.0,87,0.00,,SKC,0.00,VWS V14.01,2013-02-28 11:44:00,
2013-02-28 06:50:00,25.8,22.5,29.60,SSW,206,4.0,10.0,87,0.00,,SKC,0.00,VWS V14.01,2013-02-28 11:50:00,
2013-02-28 06:56:00,26.0,22.7,29.60,South,171,15.0,15.0,87,0.00,,SKC,0.00,VWS V14.01,2013-02-28 11:56:00,
2013-02-28 07:02:00,26.0,22.4,29.60,SW,236,7.0,15.0,86,0.00,,SKC,0.00,VWS V14.01,2013-02-28 12:02:00,
2013-02-28 07:08:00,26.0,22.4,29.60,SW,231,0.0,7.0,86,0.00,,SKC,0.00,VWS V14.01,2013-02-28 12:08:00,
2013-02-28 07:14:00,26.0,22.1,29.60,SW,229,3.0,7.0,85,0.00,,SKC,0.00,VWS V14.01,2013-02-28 12:14:00,
2013-02-28 07:20:00,26.0,22.1,29.60,SSE,166,0.0,11.0,85,0.00,,SKC,0.00,VWS V14.01,2013-02-28 12:20:00,
2013-02-28 07:26:00,26.1,21.9,29.60,SW,227,3.0,14.0,84,0.00,,SKC,0.00,VWS V14.01,2013-02-28 12:26:00,
2013-02-28 07:32:00,26.1,21.9,29.61,SW,226,3.0,14.0,84,0.00,,SKC,0.00,VWS V14.01,2013-02-28 12:32:00,
2013-02-28 07:38:00,26.1,21.9,29.61,SW,226,0.0,5.0,84,0.00,,SKC,0.00,VWS V14.01,2013-02-28 12:38:00,
2013-02-28 07:44:00,26.1,21.9,29.61,SE,124,0.0,12.0,84,0.00,,SKC,0.00,VWS V14.01,2013-02-28 12:44:00,
2013-02-28 07:50:00,26.0,21.8,29.61,SSW,204,4.0,5.0,84,0.00,,SKC,0.00,VWS V14.01,2013-02-28 12:50:00,
2013-02-28 07:56:00,26.0,21.8,29.61,SW,229,7.0,11.0,84,0.00,,SKC,0.00,VWS V14.01,2013-02-28 12:56:00,
2013-02-28 08:02:00,26.0,22.1,29.60,SW,218,6.0,13.0,85,0.00,,SKC,0.00,VWS V14.01,2013-02-28 13:02:00,
2013-02-28 08:08:00,26.0,22.4,29.60,South,186,4.0,13.0,86,0.00,,SKC,0.00,VWS V14.01,2013-02-28 13:08:00,
2013-02-28 08:14:00,26.1,21.9,29.60,SE,139,10.0,18.0,84,0.00,,SKC,0.00,VWS V14.01,2013-02-28 13:14:00,
2013-02-28 08:20:00,26.3,21.9,29.61,South,188,5.0,15.0,83,0.00,,SKC,0.00,VWS V14.01,2013-02-28 13:20:00,
2013-02-28 08:26:00,26.3,21.6,29.61,SSW,205,5.0,22.0,82,0.00,,SKC,0.00,VWS V14.01,2013-02-28 13:26:00,
2013-02-28 08:32:00,26.4,21.4,29.61,SSW,195,7.0,22.0,81,0.00,,SKC,0.00,VWS V14.01,2013-02-28 13:32:00,
2013-02-28 08:38:00,26.9,21.3,29.61,SW,217,9.0,18.0,79,0.00,,SKC,0.00,VWS V14.01,2013-02-28 13:38:00,
2013-02-28 08:44:00,26.9,20.4,29.61,SSE,151,13.0,21.0,76,0.00,,SKC,0.00,VWS V14.01,2013-02-28 13:44:00,
2013-02-28 08:50:00,27.0,20.1,29.60,West,260,5.0,24.0,75,0.00,,SKC,0.00,VWS V14.01,2013-02-28 13:50:00,
2013-02-28 08:56:00,27.3,19.1,29.60,SSW,205,6.0,24.0,71,0.00,,SKC,0.00,VWS V14.01,2013-02-28 13:56:00,
2013-02-28 09:02:00,27.5,19.4,29.62,West,278,3.0,25.0,71,0.00,,SKC,0.00,VWS V14.01,2013-02-28 14:02:00,
2013-02-28 09:08:00,27.8,18.6,29.62,SSW,212,6.0,22.0,68,0.00,,SKC,0.00,VWS V14.01,2013-02-28 14:08:00,
2013-02-28 09:14:00,27.3,18.5,29.62,SSW,205,15.0,28.0,69,0.00,,SKC,0.00,VWS V14.01,2013-02-28 14:14:00,
2013-02-28 09:20:00,27.3,18.8,29.62,SSW,210,4.0,14.0,70,0.00,,SKC,0.00,VWS V14.01,2013-02-28 14:20:00,
2013-02-28 09:26:00,27.3,18.8,29.62,SSW,207,5.0,19.0,70,0.00,,SKC,0.00,VWS V14.01,2013-02-28 14:26:00,
2013-02-28 09:32:00,27.3,18.5,29.62,NW,311,9.0,25.0,69,0.00,,SKC,0.00,VWS V14.01,2013-02-28 14:32:00,
2013-02-28 09:38:00,27.9,18.7,29.62,South,187,6.0,17.0,68,0.00,,SKC,0.00,VWS V14.01,2013-02-28 14:38:00,
2013-02-28 09:44:00,27.9,18.7,29.62,WSW,255,13.0,25.0,68,0.00,,SKC,0.00,VWS V14.01,2013-02-28 14:44:00,
2013-02-28 09:50:00,27.8,19.0,29.61,WSW,258,4.0,15.0,69,0.00,,SKC,0.00,VWS V14.01,2013-02-28 14:50:00,
2013-02-28 09:56:00,27.6,19.1,29.61,SW,229,7.0,15.0,70,0.00,,SKC,0.00,VWS V14.01,2013-02-28 14:56:00,
2013-02-28 10:02:00,27.3,18.8,29.62,SSE,163,6.0,28.0,70,0.00,,SKC,0.00,VWS V14.01,2013-02-28 15:02:00,
2013-02-28 10:09:00,27.3,18.8,29.62,South,171,0.0,24.0,70,0.00,,SKC,0.00,VWS V14.01,2013-02-28 15:09:00,
2013-02-28 10:15:00,27.5,19.0,29.62,SSW,199,1.0,24.0,70,0.00,,SKC,0.00,VWS V14.01,2013-02-28 15:15:00,
2013-02-28 10:21:00,27.6,19.4,29.62,SW,218,0.0,12.0,71,0.00,,SKC,0.00,VWS V14.01,2013-02-28 15:21:00,
2013-02-28 10:27:00,27.5,19.7,29.62,SSW,205,0.0,12.0,72,0.00,,SKC,0.00,VWS V14.01,2013-02-28 15:27:00,
2013-02-28 10:32:00,27.3,20.1,29.62,SSE,151,2.0,17.0,74,0.00,,SKC,0.00,VWS V14.01,2013-02-28 15:32:00,
2013-02-28 10:39:00,27.0,20.1,29.62,SSE,151,6.0,12.0,75,0.00,,SKC,0.00,VWS V14.01,2013-02-28 15:39:00,
2013-02-28 10:45:00,26.7,19.9,29.62,SSW,199,5.0,17.0,75,0.00,,SKC,0.00,VWS V14.01,2013-02-28 15:45:00,
2013-02-28 10:51:00,26.9,20.4,29.62,South,173,2.0,14.0,76,0.00,,SKC,0.00,VWS V14.01,2013-02-28 15:51:00,
2013-02-28 10:57:00,27.6,21.4,29.62,SSW,203,10.0,14.0,77,0.00,,SKC,0.00,VWS V14.01,2013-02-28 15:57:00,
2013-02-28 11:02:00,27.8,20.6,29.62,SSW,200,7.0,23.0,74,0.00,,SKC,0.00,VWS V14.01,2013-02-28 16:02:00,
2013-02-28 11:09:00,27.5,20.6,29.62,West,277,3.0,9.0,75,0.00,,SKC,0.00,VWS V14.01,2013-02-28 16:09:00,
2013-02-28 11:15:00,27.2,20.3,29.62,NNW,330,6.0,25.0,75,0.00,,SKC,0.00,VWS V14.01,2013-02-28 16:15:00,
2013-02-28 11:21:00,27.0,20.1,29.63,South,184,9.0,13.0,75,0.00,,SKC,0.00,VWS V14.01,2013-02-28 16:21:00,
2013-02-28 11:27:00,27.0,20.5,29.63,SSW,200,9.0,23.0,76,0.00,,SKC,0.00,VWS V14.01,2013-02-28 16:27:00,
2013-02-28 11:32:00,27.2,20.0,29.63,South,178,16.0,25.0,74,0.00,,SKC,0.00,VWS V14.01,2013-02-28 16:32:00,
2013-02-28 11:39:00,28.1,20.9,29.63,SSW,193,25.0,29.0,74,0.00,,SKC,0.00,VWS V14.01,2013-02-28 16:39:00,
2013-02-28 11:45:00,28.2,20.0,29.63,SSW,212,15.0,29.0,71,0.00,,SKC,0.00,VWS V14.01,2013-02-28 16:45:00,
2013-02-28 11:51:00,27.9,19.1,29.63,WSW,248,6.0,28.0,69,0.00,,SKC,0.00,VWS V14.01,2013-02-28 16:51:00,
2013-02-28 11:57:00,29.0,19.8,29.63,WSW,257,6.0,28.0,68,0.00,,SKC,0.00,VWS V14.01,2013-02-28 16:57:00,
2013-02-28 12:02:00,29.0,20.1,29.62,SSW,194,15.0,31.0,69,0.00,,SKC,0.00,VWS V14.01,2013-02-28 17:02:00,
2013-02-28 12:09:00,29.0,19.8,29.62,West,262,5.0,30.0,68,0.00,,SKC,0.00,VWS V14.01,2013-02-28 17:09:00,
2013-02-28 12:15:00,29.1,20.2,29.62,WSW,247,4.0,30.0,69,0.00,,SKC,0.00,VWS V14.01,2013-02-28 17:15:00,
2013-02-28 12:21:00,28.5,19.6,29.63,South,184,23.0,23.0,69,0.00,,SKC,0.00,VWS V14.01,2013-02-28 17:21:00,
2013-02-28 12:27:00,29.4,20.2,29.63,WSW,250,15.0,23.0,68,0.00,,SKC,0.00,VWS V14.01,2013-02-28 17:27:00,
2013-02-28 12:33:00,30.1,20.5,29.62,SSW,195,15.0,15.0,67,0.00,,SKC,0.00,VWS V14.01,2013-02-28 17:33:00,
2013-02-28 12:39:00,30.6,20.6,29.62,WSW,244,9.0,18.0,66,0.00,,SKC,0.00,VWS V14.01,2013-02-28 17:39:00,
2013-02-28 12:45:00,29.8,20.2,29.62,SSW,198,6.0,18.0,67,0.00,,SKC,0.00,VWS V14.01,2013-02-28 17:45:00,
2013-02-28 12:51:00,30.1,20.1,29.62,SSE,162,5.0,22.0,66,0.00,,SKC,0.00,VWS V14.01,2013-02-28 17:51:00,
2013-02-28 12:57:00,29.4,20.5,29.62,West,265,6.0,25.0,69,0.00,,SKC,0.00,VWS V14.01,2013-02-28 17:57:00,
2013-02-28 13:03:00,28.8,19.9,29.64,WSW,254,10.0,13.0,69,0.00,,SKC,0.00,VWS V14.01,2013-02-28 18:03:00,
2013-02-28 13:09:00,28.8,19.6,29.64,SSW,211,1.0,14.0,68,0.00,,SKC,0.00,VWS V14.01,2013-02-28 18:09:00,
2013-02-28 13:16:00,28.8,19.6,29.64,SSW,207,0.0,18.0,68,0.00,,SKC,0.00,VWS V14.01,2013-02-28 18:16:00,
2013-02-28 13:22:00,28.8,20.3,29.64,SSW,206,12.0,12.0,70,0.00,,SKC,0.00,VWS V14.01,2013-02-28 18:22:00,
2013-02-28 13:28:00,28.5,19.6,29.64,SW,223,1.0,16.0,69,0.00,,SKC,0.00,VWS V14.01,2013-02-28 18:28:00,
2013-02-28 13:34:00,28.4,19.9,29.64,South,183,11.0,13.0,70,0.00,,SKC,0.00,VWS V14.01,2013-02-28 18:34:00,
2013-02-28 13:40:00,29.0,20.5,29.64,SW,231,8.0,13.0,70,0.00,,SKC,0.00,VWS V14.01,2013-02-28 18:40:00,
2013-02-28 13:46:00,29.0,20.1,29.64,South,175,3.0,18.0,69,0.00,,SKC,0.00,VWS V14.01,2013-02-28 18:46:00,
2013-02-28 13:52:00,28.8,19.2,29.63,SW,231,5.0,25.0,67,0.00,,SKC,0.00,VWS V14.01,2013-02-28 18:52:00,
2013-02-28 13:58:00,28.7,19.1,29.63,SW,215,10.0,25.0,67,0.00,,SKC,0.00,VWS V14.01,2013-02-28 18:58:00,
2013-02-28 14:04:00,29.0,19.8,29.63,SSW,212,0.0,7.0,68,0.00,,SKC,0.00,VWS V14.01,2013-02-28 19:04:00,
2013-02-28 14:10:00,29.1,19.9,29.63,SSE,153,5.0,29.0,68,0.00,,SKC,0.00,VWS V14.01,2013-02-28 19:10:00,
2013-02-28 14:16:00,29.0,19.1,29.63,South,188,6.0,29.0,66,0.00,,SKC,0.00,VWS V14.01,2013-02-28 19:16:00,
2013-02-28 14:22:00,28.7,19.5,29.64,SW,233,3.0,15.0,68,0.00,,SKC,0.00,VWS V14.01,2013-02-28 19:22:00,
2013-02-28 14:28:00,28.5,19.6,29.64,SW,231,9.0,24.0,69,0.00,,SKC,0.00,VWS V14.01,2013-02-28 19:28:00,
2013-02-28 14:34:00,28.5,20.0,29.63,NNW,338,4.0,11.0,70,0.00,,SKC,0.00,VWS V14.01,2013-02-28 19:34:00,
2013-02-28 14:40:00,28.4,19.5,29.63,NNE,19,4.0,11.0,69,0.00,,SKC,0.00,VWS V14.01,2013-02-28 19:40:00,
2013-02-28 14:46:00,28.4,19.9,29.63,SW,229,3.0,16.0,70,0.00,,SKC,0.00,VWS V14.01,2013-02-28 19:46:00,
2013-02-28 14:52:00,28.4,19.9,29.64,SSW,211,6.0,17.0,70,0.00,,SKC,0.00,VWS V14.01,2013-02-28 19:52:00,
2013-02-28 14:58:00,28.2,19.7,29.64,SW,223,3.0,17.0,70,0.00,,SKC,0.00,VWS V14.01,2013-02-28 19:58:00,
2013-02-28 15:04:00,28.2,20.0,29.65,SSW,210,6.0,7.0,71,0.00,,SKC,0.00,VWS V14.01,2013-02-28 20:04:00,
2013-02-28 15:10:00,28.1,19.9,29.65,SSW,200,17.0,21.0,71,0.00,,SKC,0.00,VWS V14.01,2013-02-28 20:10:00,
2013-02-28 15:16:00,27.8,20.0,29.65,WSW,239,0.0,22.0,72,0.00,,SKC,0.00,VWS V14.01,2013-02-28 20:16:00,
2013-02-28 15:22:00,27.6,20.1,29.66,SSE,148,10.0,21.0,73,0.00,,SKC,0.00,VWS V14.01,2013-02-28 20:22:00,
2013-02-28 15:28:00,27.3,20.1,29.66,SW,223,7.0,21.0,74,0.00,,SKC,0.00,VWS V14.01,2013-02-28 20:28:00,
2013-02-28 15:34:00,27.5,20.3,29.66,NE,41,0.0,2.0,74,0.00,,SKC,0.00,VWS V14.01,2013-02-28 20:34:00,
2013-02-28 15:40:00,27.6,20.4,29.66,SSE,154,4.0,11.0,74,0.00,,SKC,0.00,VWS V14.01,2013-02-28 20:40:00,
2013-02-28 15:46:00,27.5,20.3,29.66,SSW,207,0.0,29.0,74,0.00,,SKC,0.00,VWS V14.01,2013-02-28 20:46:00,
2013-02-28 15:52:00,27.5,20.9,29.66,WSW,238,0.0,7.0,76,0.00,,SKC,0.00,VWS V14.01,2013-02-28 20:52:00,
2013-02-28 15:58:00,27.5,20.9,29.66,SSE,157,3.0,13.0,76,0.00,,SKC,0.00,VWS V14.01,2013-02-28 20:58:00,
2013-02-28 16:04:00,27.2,21.0,29.66,SSW,204,4.0,14.0,77,0.00,,SKC,0.00,VWS V14.01,2013-02-28 21:04:00,
2013-02-28 16:10:00,27.2,21.0,29.66,SW,217,7.0,20.0,77,0.00,,SKC,0.00,VWS V14.01,2013-02-28 21:10:00,
2013-02-28 16:16:00,27.0,20.8,29.64,SW,226,2.0,20.0,77,0.00,,SKC,0.00,VWS V14.01,2013-02-28 21:16:00,
2013-02-28 16:22:00,27.0,21.1,29.64,WSW,244,4.0,10.0,78,0.00,,SKC,0.00,VWS V14.01,2013-02-28 21:22:00,
2013-02-28 16:28:00,26.7,20.8,29.64,South,179,10.0,27.0,78,0.00,,SKC,0.00,VWS V14.01,2013-02-28 21:28:00,
2013-02-28 16:34:00,26.6,21.0,29.66,SSW,210,5.0,12.0,79,0.00,,SKC,0.00,VWS V14.01,2013-02-28 21:34:00,
2013-02-28 16:40:00,26.4,20.8,29.66,SE,141,6.0,22.0,79,0.00,,SKC,0.00,VWS V14.01,2013-02-28 21:40:00,
2013-02-28 16:46:00,26.4,21.1,29.67,WSW,240,0.0,23.0,80,0.00,,SKC,0.00,VWS V14.01,2013-02-28 21:46:00,
2013-02-28 16:53:00,26.4,21.1,29.67,SSW,205,0.0,24.0,80,0.00,,SKC,0.00,VWS V14.01,2013-02-28 21:53:00,
2013-02-28 16:59:00,26.4,21.4,29.67,SW,221,4.0,24.0,81,0.00,,SKC,0.00,VWS V14.01,2013-02-28 21:59:00,
2013-02-28 17:05:00,26.3,21.3,29.67,SW,227,4.0,14.0,81,0.00,,SKC,0.00,VWS V14.01,2013-02-28 22:05:00,
2013-02-28 17:11:00,26.3,21.6,29.67,SW,219,5.0,14.0,82,0.00,,SKC,0.00,VWS V14.01,2013-02-28 22:11:00,
2013-02-28 17:17:00,26.1,21.4,29.68,SW,233,0.0,17.0,82,0.00,,SKC,0.00,VWS V14.01,2013-02-28 22:17:00,
2013-02-28 17:23:00,26.0,21.6,29.68,South,169,9.0,27.0,83,0.00,,SKC,0.00,VWS V14.01,2013-02-28 22:23:00,
2013-02-28 17:29:00,26.0,21.6,29.68,WSW,240,3.0,27.0,83,0.00,,SKC,0.00,VWS V14.01,2013-02-28 22:29:00,
2013-02-28 17:35:00,26.0,21.8,29.69,SSW,210,6.0,15.0,84,0.00,,SKC,0.00,VWS V14.01,2013-02-28 22:35:00,
2013-02-28 17:41:00,26.0,21.8,29.69,SSW,200,2.0,21.0,84,0.00,,SKC,0.00,VWS V14.01,2013-02-28 22:41:00,
2013-02-28 17:47:00,25.8,21.6,29.69,SW,225,5.0,32.0,84,0.00,,SKC,0.00,VWS V14.01,2013-02-28 22:47:00,
2013-02-28 17:53:00,25.8,21.6,29.69,SSW,193,6.0,23.0,84,0.00,,SKC,0.00,VWS V14.01,2013-02-28 22:53:00,
2013-02-28 17:59:00,25.8,21.6,29.69,WNW,300,0.0,23.0,84,0.00,,SKC,0.00,VWS V14.01,2013-02-28 22:59:00,
2013-02-28 18:05:00,25.8,21.6,29.71,South,183,0.0,12.0,84,0.00,,SKC,0.00,VWS V14.01,2013-02-28 23:05:00,
2013-02-28 18:11:00,26.0,22.1,29.71,SSW,193,1.0,15.0,85,0.00,,SKC,0.00,VWS V14.01,2013-02-28 23:11:00,
2013-02-28 18:17:00,25.8,21.6,29.71,SSW,207,2.0,20.0,84,0.00,,SKC,0.00,VWS V14.01,2013-02-28 23:17:00,
2013-02-28 18:23:00,25.8,21.9,29.71,South,189,16.0,16.0,85,0.00,,SKC,0.00,VWS V14.01,2013-02-28 23:23:00,
2013-02-28 18:29:00,25.8,21.9,29.71,SW,225,3.0,22.0,85,0.00,,SKC,0.00,VWS V14.01,2013-02-28 23:29:00,
2013-02-28 18:35:00,25.8,21.9,29.71,WSW,250,4.0,27.0,85,0.00,,SKC,0.00,VWS V14.01,2013-02-28 23:35:00,
2013-02-28 18:41:00,25.8,21.9,29.71,SW,216,3.0,27.0,85,0.00,,SKC,0.00,VWS V14.01,2013-02-28 23:41:00,
2013-02-28 18:47:00,25.8,21.9,29.71,SW,229,10.0,27.0,85,0.00,,SKC,0.00,VWS V14.01,2013-02-28 23:47:00,
2013-02-28 18:53:00,25.8,21.9,29.71,SSW,204,4.0,14.0,85,0.00,,SKC,0.00,VWS V14.01,2013-02-28 23:53:00,
2013-02-28 18:59:00,25.8,21.9,29.71,West,264,5.0,16.0,85,0.00,,SKC,0.00,VWS V14.01,2013-02-28 23:59:00,
2013-02-28 19:05:00,25.8,22.2,29.72,SSW,198,5.0,23.0,86,0.00,,SKC,0.00,VWS V14.01,2013-03-01 00:05:00,
2013-02-28 19:11:00,25.8,22.2,29.72,WSW,255,6.0,23.0,86,0.00,,SKC,0.00,VWS V14.01,2013-03-01 00:11:00,
2013-02-28 19:17:00,25.8,22.2,29.72,SSW,199,4.0,23.0,86,0.00,,SKC,0.00,VWS V14.01,2013-03-01 00:17:00,
2013-02-28 19:23:00,25.8,22.2,29.72,NNE,27,9.0,37.0,86,0.00,,SKC,0.00,VWS V14.01,2013-03-01 00:23:00,
2013-02-28 19:29:00,25.7,22.1,29.72,ENE,66,5.0,37.0,86,0.00,,SKC,0.00,VWS V14.01,2013-03-01 00:29:00,
2013-02-28 19:35:00,25.7,22.4,29.73,SW,227,3.0,6.0,87,0.00,,SKC,0.00,VWS V14.01,2013-03-01 00:35:00,
2013-02-28 19:41:00,25.7,22.4,29.73,SW,226,3.0,21.0,87,0.00,,SKC,0.00,VWS V14.01,2013-03-01 00:41:00,
2013-02-28 19:47:00,25.6,22.3,29.72,SSE,163,6.0,21.0,87,0.00,,SKC,0.00,VWS V14.01,2013-03-01 00:47:00,
2013-02-28 19:53:00,25.6,22.3,29.72,SSE,155,5.0,12.0,87,0.00,,SKC,0.00,VWS V14.01,2013-03-01 00:53:00,
2013-02-28 19:59:00,25.6,22.3,29.72,WSW,257,0.0,16.0,87,0.00,,SKC,0.00,VWS V14.01,2013-03-01 00:59:00,
2013-02-28 20:05:00,25.6,22.3,29.73,ESE,110,0.0,15.0,87,0.00,,SKC,0.00,VWS V14.01,2013-03-01 01:05:00,
2013-02-28 20:11:00,25.6,22.3,29.73,ESE,112,2.0,15.0,87,0.00,,SKC,0.00,VWS V14.01,2013-03-01 01:11:00,
2013-02-28 20:17:00,25.6,22.3,29.73,WNW,300,2.0,15.0,87,0.00,,SKC,0.00,VWS V14.01,2013-03-01 01:17:00,
2013-02-28 20:24:00,25.6,22.3,29.73,ESE,117,10.0,16.0,87,0.00,,SKC,0.00,VWS V14.01,2013-03-01 01:24:00,
2013-02-28 20:30:00,25.6,22.3,29.73,SE,129,6.0,16.0,87,0.00,,SKC,0.00,VWS V14.01,2013-03-01 01:30:00,
2013-02-28 20:36:00,25.6,22.3,29.72,SE,144,10.0,15.0,87,0.00,,SKC,0.00,VWS V14.01,2013-03-01 01:36:00,
2013-02-28 20:42:00,25.6,22.3,29.72,West,259,9.0,23.0,87,0.00,,SKC,0.00,VWS V14.01,2013-03-01 01:42:00,
2013-02-28 20:47:00,25.6,22.0,29.72,SW,220,6.0,23.0,86,0.00,,SKC,0.00,VWS V14.01,2013-03-01 01:47:00,
2013-02-28 20:54:00,25.7,21.8,29.72,SW,222,6.0,31.0,85,0.00,,SKC,0.00,VWS V14.01,2013-03-01 01:54:00,
2013-02-28 21:00:00,25.7,21.5,29.72,SSW,199,5.0,31.0,84,0.00,,SKC,0.00,VWS V14.01,2013-03-01 02:00:00,
2013-02-28 21:06:00,25.7,21.5,29.72,South,177,2.0,11.0,84,0.00,,SKC,0.00,VWS V14.01,2013-03-01 02:06:00,
2013-02-28 21:12:00,25.8,21.6,29.72,West,263,1.0,15.0,84,0.00,,SKC,0.00,VWS V14.01,2013-03-01 02:12:00,
2013-02-28 21:17:00,25.8,21.6,29.72,SW,214,1.0,17.0,84,0.00,,SKC,0.00,VWS V14.01,2013-03-01 02:17:00,
2013-02-28 21:24:00,25.8,21.4,29.72,South,188,6.0,14.0,83,0.00,,SKC,0.00,VWS V14.01,2013-03-01 02:24:00,
2013-02-28 21:30:00,26.0,21.6,29.72,SW,224,0.0,23.0,83,0.00,,SKC,0.00,VWS V14.01,2013-03-01 02:30:00,
2013-02-28 21:36:00,26.0,21.6,29.72,WSW,257,2.0,15.0,83,0.00,,SKC,0.00,VWS V14.01,2013-03-01 02:36:00,
2013-02-28 21:42:00,26.0,21.6,29.72,ESE,122,2.0,15.0,83,0.00,,SKC,0.00,VWS V14.01,2013-03-01 02:42:00,
2013-02-28 21:47:00,26.0,21.6,29.73,East,82,1.0,18.0,83,0.00,,SKC,0.00,VWS V14.01,2013-03-01 02:47:00,
2013-02-28 21:54:00,26.0,21.6,29.73,ESE,120,5.0,16.0,83,0.00,,SKC,0.00,VWS V14.01,2013-03-01 02:54:00,
2013-02-28 22:00:00,26.0,21.6,29.73,East,90,4.0,17.0,83,0.00,,SKC,0.00,VWS V14.01,2013-03-01 03:00:00,
2013-02-28 22:15:00,26.1,21.6,29.73,South,180,3.0,18.0,83,0.00,,SKC,0.00,VWS V14.01,2013-03-01 03:15:00,
2013-02-28 22:30:00,26.0,21.6,29.72,North,0,3.0,15.0,83,0.00,,SKC,0.00,VWS V14.01,2013-03-01 03:30:00,
2013-02-28 22:45:00,26.0,21.8,29.73,SSW,202,3.0,14.0,84,0.00,,SKC,0.00,VWS V14.01,2013-03-01 03:45:00,
2013-02-28 23:00:00,26.0,22.1,29.72,SSW,202,5.0,26.0,85,0.00,,SKC,0.00,VWS V14.01,2013-03-01 04:00:00,
2013-02-28 23:15:00,26.0,22.4,29.73,ESE,112,6.0,22.0,86,0.00,,SKC,0.00,VWS V14.01,2013-03-01 04:15:00,
2013-02-28 23:30:00,26.0,22.7,29.73,WNW,292,3.0,10.0,87,0.00,,SKC,0.00,VWS V14.01,2013-03-01 04:30:00,
2013-02-28 23:45:00,26.0,22.7,29.72,SW,225,2.0,7.0,87,0.00,,SKC,0.00,VWS V14.01,2013-03-01 04:45:00,